CheckWX is a tool to help pilots better visualize weather data.  It is not intended as a substitute for an official pre-flight weather briefing.

09:21:58 UTC

KMMI METAR
McMinn County Airport
Athens, Tennessee, USA
Current

27 mins ago

KMMI 070855Z AUTO 00000KT 10SM OVC050 04/02 A3025 RMK A01
Observed
Dec-7 @ 08:55 UTC
Visibility
10 SM
Flight Rules
VFR
Cloud Levels
  • Overcast at 5,000' AGL
Temperature
C / 39°F
Dewpoint
C / 36°F
Humidity
87%
Altimeter
30.25" Hg
Pressure
1024.42 hPa
Previous

47 mins ago

KMMI 070835Z AUTO 00000KT 10SM OVC050 03/02 A3025 RMK A01
Observed
Dec-7 @ 08:35 UTC
Visibility
10 SM
Flight Rules
VFR
Cloud Levels
  • Overcast at 5,000' AGL
Temperature
C / 37°F
Dewpoint
C / 36°F
Humidity
93%
Altimeter
30.25" Hg
Pressure
1024.42 hPa
Previous

1 hour ago

KMMI 070815Z AUTO 00000KT 10SM OVC050 04/03 A3025 RMK A01
Observed
Dec-7 @ 08:15 UTC
Visibility
10 SM
Flight Rules
VFR
Cloud Levels
  • Overcast at 5,000' AGL
Temperature
C / 39°F
Dewpoint
C / 37°F
Humidity
93%
Altimeter
30.25" Hg
Pressure
1024.42 hPa